createdAt,value
2018-01-12T00:01:33.482Z,3.90
2018-01-12T00:04:00.969Z,3.80
2018-01-12T00:06:28.413Z,4.00
2018-01-12T00:08:56.618Z,3.90
2018-01-12T00:11:24.058Z,3.80
2018-01-12T00:13:51.554Z,3.80
2018-01-12T00:16:18.990Z,3.80
2018-01-12T00:18:46.465Z,3.70
2018-01-12T00:21:14.229Z,3.70
2018-01-12T00:23:41.694Z,3.70
2018-01-12T00:26:09.325Z,3.70
2018-01-12T00:28:36.757Z,3.70
2018-01-12T00:31:04.957Z,3.70
2018-01-12T00:33:32.446Z,3.70
2018-01-12T00:35:59.874Z,3.70
2018-01-12T00:38:27.313Z,3.60
2018-01-12T00:40:54.745Z,3.50
2018-01-12T00:43:23.111Z,3.40
2018-01-12T00:45:50.553Z,3.40
2018-01-12T00:48:17.991Z,3.50
2018-01-12T00:50:45.471Z,3.60
2018-01-12T00:53:12.930Z,3.60
2018-01-12T00:55:40.362Z,3.60
2018-01-12T00:58:07.810Z,3.60
2018-01-12T01:00:35.313Z,3.60
2018-01-12T01:03:02.866Z,3.60
2018-01-12T01:05:30.509Z,3.40
2018-01-12T01:07:58.090Z,3.40
2018-01-12T01:10:25.542Z,3.40
2018-01-12T01:12:52.969Z,3.30
2018-01-12T01:15:20.393Z,3.20
2018-01-12T01:17:47.817Z,3.20
2018-01-12T01:20:15.279Z,3.20
2018-01-12T01:22:42.715Z,3.20
2018-01-12T01:25:10.292Z,3.20
2018-01-12T01:27:38.050Z,3.20
2018-01-12T01:30:05.701Z,3.20
2018-01-12T01:32:33.156Z,3.20
2018-01-12T01:35:00.766Z,3.20
2018-01-12T01:37:28.411Z,3.30
2018-01-12T01:39:55.953Z,3.30
2018-01-12T01:42:23.411Z,3.30
2018-01-12T01:44:51.177Z,3.30
2018-01-12T01:47:18.814Z,3.40
2018-01-12T01:49:46.302Z,3.40
2018-01-12T01:52:13.799Z,3.40
2018-01-12T01:54:41.319Z,3.40
2018-01-12T01:57:08.750Z,3.50
2018-01-12T01:59:36.235Z,3.50
2018-01-12T02:02:03.867Z,3.50
2018-01-12T02:04:31.311Z,3.50
2018-01-12T02:06:59.534Z,3.40
2018-01-12T02:09:27.057Z,3.40
2018-01-12T02:11:54.617Z,3.40
2018-01-12T02:14:22.210Z,3.40
2018-01-12T02:16:49.672Z,3.40
2018-01-12T02:19:17.097Z,3.40
2018-01-12T02:21:44.586Z,3.40
2018-01-12T02:24:12.110Z,3.40
2018-01-12T02:26:39.721Z,3.40
2018-01-12T02:29:07.165Z,3.30
2018-01-12T02:31:34.807Z,3.30
2018-01-12T02:34:02.419Z,3.30
2018-01-12T02:36:30.865Z,3.40
2018-01-12T02:38:58.498Z,3.40
2018-01-12T02:41:26.911Z,3.40
2018-01-12T02:43:54.374Z,3.50
2018-01-12T02:46:21.861Z,3.40
2018-01-12T02:48:49.382Z,3.40
2018-01-12T02:51:16.812Z,3.40
2018-01-12T02:53:44.250Z,3.40
2018-01-12T02:56:11.677Z,3.40
2018-01-12T02:58:39.223Z,3.40
2018-01-12T03:01:06.679Z,3.40
2018-01-12T03:03:34.301Z,3.30
2018-01-12T03:06:01.897Z,3.30
2018-01-12T03:08:29.545Z,3.30
2018-01-12T03:10:56.986Z,3.30
2018-01-12T03:13:24.478Z,3.40
2018-01-12T03:15:51.917Z,3.40
2018-01-12T03:18:19.390Z,3.40
2018-01-12T03:20:46.833Z,3.50
2018-01-12T03:23:14.262Z,3.50
2018-01-12T03:25:42.786Z,3.40
2018-01-12T03:28:10.251Z,3.40
2018-01-12T03:30:37.680Z,3.40
2018-01-12T03:33:05.160Z,3.50
2018-01-12T03:35:32.616Z,3.50
2018-01-12T03:38:00.271Z,3.50
2018-01-12T03:40:27.840Z,3.40
2018-01-12T03:42:55.490Z,3.50
2018-01-12T03:45:23.060Z,3.40
2018-01-12T03:47:50.825Z,3.40
2018-01-12T03:50:18.258Z,3.50
2018-01-12T03:52:45.678Z,3.40
2018-01-12T03:55:13.197Z,3.50
2018-01-12T03:57:40.656Z,3.50
2018-01-12T04:00:08.103Z,3.50
2018-01-12T04:02:35.579Z,3.50
2018-01-12T04:05:03.019Z,3.50
2018-01-12T04:07:30.492Z,3.50
2018-01-12T04:09:58.302Z,3.40
2018-01-12T04:12:26.021Z,3.40
2018-01-12T04:14:53.486Z,3.50
2018-01-12T04:17:20.937Z,3.60
2018-01-12T04:19:48.701Z,3.50
2018-01-12T04:22:16.355Z,3.50
2018-01-12T04:24:43.830Z,3.50
2018-01-12T04:27:11.386Z,3.50
2018-01-12T04:29:38.841Z,3.50
2018-01-12T04:32:06.614Z,3.50
2018-01-12T04:34:34.236Z,3.50
2018-01-12T04:37:01.733Z,3.50
2018-01-12T04:39:29.162Z,3.80
2018-01-12T04:41:56.741Z,3.80
2018-01-12T04:44:24.177Z,3.70
2018-01-12T04:46:51.602Z,3.70
2018-01-12T04:49:20.037Z,3.60
2018-01-12T04:51:47.660Z,3.60
2018-01-12T04:54:16.070Z,3.60
2018-01-12T04:56:43.503Z,3.60
2018-01-12T04:59:11.030Z,3.50
2018-01-12T05:01:38.558Z,3.50
2018-01-12T05:04:06.226Z,3.60
2018-01-12T05:06:33.973Z,3.60
2018-01-12T05:09:01.554Z,3.60
2018-01-12T05:11:28.982Z,3.60
2018-01-12T05:13:56.469Z,3.50
2018-01-12T05:16:24.126Z,3.50
2018-01-12T05:18:51.690Z,3.50
2018-01-12T05:21:19.138Z,3.60
2018-01-12T05:23:46.606Z,3.60
2018-01-12T05:26:14.043Z,3.60
2018-01-12T05:28:41.471Z,3.60
2018-01-12T05:31:08.973Z,3.50
2018-01-12T05:33:36.407Z,3.60
2018-01-12T05:36:03.849Z,3.60
2018-01-12T05:38:32.049Z,3.70
2018-01-12T05:40:59.650Z,3.50
2018-01-12T05:43:27.094Z,3.60
2018-01-12T05:45:54.562Z,3.60
2018-01-12T05:48:22.102Z,3.50
2018-01-12T05:50:49.750Z,3.50
2018-01-12T05:53:17.185Z,3.50
2018-01-12T05:55:44.665Z,3.50
2018-01-12T05:58:12.099Z,3.40
2018-01-12T06:00:40.321Z,3.60
2018-01-12T06:03:19.590Z,3.60
2018-01-12T06:08:49.687Z,3.50
2018-01-12T06:11:17.146Z,3.60
2018-01-12T06:13:44.783Z,3.60
2018-01-12T06:16:12.376Z,3.50
2018-01-12T06:18:40.133Z,3.40
2018-01-12T06:21:07.897Z,3.40
2018-01-12T06:23:35.364Z,3.40
2018-01-12T06:26:02.799Z,3.40
2018-01-12T06:28:30.220Z,3.50
2018-01-12T06:30:57.673Z,3.60
2018-01-12T06:33:25.180Z,3.50
2018-01-12T06:35:52.707Z,3.60
2018-01-12T06:38:20.907Z,3.50
2018-01-12T06:40:48.389Z,3.50
2018-01-12T06:43:15.936Z,3.40
2018-01-12T06:45:43.575Z,3.40
2018-01-12T06:48:11.166Z,3.50
2018-01-12T06:50:38.789Z,3.50
2018-01-12T06:53:06.372Z,3.50
2018-01-12T06:55:33.841Z,3.50
2018-01-12T06:58:01.493Z,3.50
2018-01-12T07:00:29.001Z,3.50
2018-01-12T07:02:56.526Z,3.60
2018-01-12T07:05:24.160Z,3.50
2018-01-12T07:07:51.745Z,3.60
2018-01-12T07:10:19.518Z,3.60
2018-01-12T07:12:47.288Z,3.60
2018-01-12T07:15:14.734Z,3.70
2018-01-12T07:17:42.361Z,3.70
2018-01-12T07:20:21.515Z,3.70
2018-01-12T07:23:01.071Z,3.80
2018-01-12T07:25:28.491Z,3.70
2018-01-12T07:27:55.925Z,3.70
2018-01-12T07:30:23.437Z,3.60
2018-01-12T07:32:50.908Z,3.70
2018-01-12T07:35:18.330Z,3.70
2018-01-12T07:37:45.809Z,3.80
2018-01-12T07:40:13.237Z,3.70
2018-01-12T07:42:40.678Z,3.70
2018-01-12T07:45:08.198Z,3.70
2018-01-12T07:47:35.631Z,3.70
2018-01-12T07:50:03.071Z,3.70
2018-01-12T07:52:30.496Z,3.60
2018-01-12T07:54:57.941Z,3.60
2018-01-12T07:57:25.365Z,3.60
2018-01-12T07:59:52.942Z,3.60
2018-01-12T08:02:25.930Z,3.50
2018-01-12T08:04:53.473Z,3.60
2018-01-12T08:07:21.053Z,3.50
2018-01-12T08:09:48.532Z,3.60
2018-01-12T08:12:15.997Z,3.60
2018-01-12T08:14:43.525Z,3.60
2018-01-12T08:17:10.979Z,3.60
2018-01-12T08:19:38.441Z,3.60
2018-01-12T08:22:06.816Z,3.70
2018-01-12T08:24:34.450Z,3.80
2018-01-12T08:27:02.037Z,3.80
2018-01-12T08:29:29.478Z,3.80
2018-01-12T08:31:56.901Z,3.80
2018-01-12T08:34:24.412Z,3.80
2018-01-12T08:36:52.052Z,3.80
2018-01-12T08:39:19.639Z,3.80
2018-01-12T08:41:47.406Z,3.90
2018-01-12T08:44:15.165Z,3.80
2018-01-12T08:46:42.593Z,3.80
2018-01-12T08:49:10.018Z,3.90
2018-01-12T08:51:37.445Z,3.90
2018-01-12T08:54:04.937Z,4.00
2018-01-12T08:56:32.357Z,3.90
2018-01-12T08:58:59.796Z,3.90
2018-01-12T09:01:27.220Z,3.90
2018-01-12T09:03:55.437Z,4.00
2018-01-12T09:06:23.077Z,3.90
2018-01-12T09:08:50.602Z,3.80
2018-01-12T09:11:18.024Z,3.70
2018-01-12T09:13:53.261Z,3.90
2018-01-12T09:16:27.561Z,3.90
2018-01-12T09:19:21.558Z,3.80
2018-01-12T09:21:56.803Z,3.90
2018-01-12T09:24:24.260Z,3.90
2018-01-12T09:26:51.781Z,3.90
2018-01-12T09:29:19.398Z,3.90
2018-01-12T09:31:51.517Z,3.90
2018-01-12T09:34:30.846Z,3.90
2018-01-12T09:36:59.250Z,3.90
2018-01-12T09:39:38.252Z,4.00
2018-01-12T09:42:05.960Z,4.00
2018-01-12T09:44:33.603Z,4.00
2018-01-12T09:47:27.910Z,4.00
2018-01-12T09:49:55.350Z,3.90
2018-01-12T09:52:22.777Z,4.00
2018-01-12T09:54:50.225Z,4.10
2018-01-12T09:57:17.654Z,4.00
2018-01-12T09:59:45.093Z,4.00
2018-01-12T10:02:12.520Z,4.10
2018-01-12T10:04:39.958Z,4.10
2018-01-12T10:07:19.460Z,4.10
2018-01-12T10:09:48.612Z,4.00
2018-01-12T10:12:15.999Z,4.20
2018-01-12T10:14:43.456Z,4.10
2018-01-12T10:17:10.914Z,4.20
2018-01-12T10:20:02.029Z,4.30
2018-01-12T10:22:29.798Z,4.30
2018-01-12T10:24:57.558Z,4.40
2018-01-12T10:27:25.208Z,4.40
2018-01-12T10:29:57.453Z,4.40
2018-01-12T10:32:25.580Z,4.20
2018-01-12T10:35:05.399Z,4.30
2018-01-12T10:37:32.879Z,4.30
2018-01-12T10:40:01.149Z,4.30
2018-01-12T10:42:28.815Z,4.30
2018-01-12T10:44:56.572Z,4.30
2018-01-12T10:47:25.918Z,4.40
2018-01-12T10:52:52.372Z,4.50
2018-01-12T10:55:19.798Z,4.40
2018-01-12T10:57:47.227Z,4.50
2018-01-12T11:00:24.641Z,4.40
2018-01-12T11:02:52.060Z,4.40
2018-01-12T11:05:19.492Z,4.50
2018-01-12T11:07:47.018Z,4.50
2018-01-12T11:10:14.641Z,4.60
2018-01-12T11:12:42.069Z,4.60
2018-01-12T11:15:09.506Z,4.50
2018-01-12T11:17:37.049Z,4.60
2018-01-12T11:20:04.476Z,4.50
2018-01-12T11:22:31.969Z,4.50
2018-01-12T11:24:59.517Z,4.70
2018-01-12T11:27:26.990Z,4.50
2018-01-12T11:29:54.738Z,4.60
2018-01-12T11:32:22.169Z,4.60
2018-01-12T11:34:49.589Z,4.60
2018-01-12T11:37:17.025Z,4.60
2018-01-12T11:39:44.482Z,4.50
2018-01-12T11:42:11.934Z,4.50
2018-01-12T11:44:39.596Z,4.50
2018-01-12T11:47:07.257Z,4.50
2018-01-12T11:49:35.017Z,4.60
2018-01-12T11:52:02.437Z,4.60
2018-01-12T11:54:29.929Z,4.50
2018-01-12T11:56:57.391Z,4.50
2018-01-12T11:59:24.851Z,4.60
2018-01-12T12:01:52.478Z,4.50
2018-01-12T12:04:19.988Z,4.60
2018-01-12T12:06:47.533Z,4.50
2018-01-12T12:09:15.293Z,4.50
2018-01-12T12:11:42.717Z,4.40
2018-01-12T12:14:10.218Z,4.40
2018-01-12T12:16:37.673Z,4.40
2018-01-12T12:19:05.326Z,4.40
2018-01-12T12:21:32.760Z,4.30
2018-01-12T12:24:00.256Z,4.30
2018-01-12T12:26:27.811Z,4.40
2018-01-12T12:28:55.246Z,4.40
2018-01-12T12:31:22.730Z,4.50
2018-01-12T12:33:50.366Z,4.60
2018-01-12T12:36:17.816Z,4.60
2018-01-12T12:38:45.408Z,4.60
2018-01-12T12:41:13.170Z,4.60
2018-01-12T12:43:40.633Z,4.50
2018-01-12T12:46:08.086Z,4.50
2018-01-12T12:48:35.546Z,4.50
2018-01-12T12:51:03.011Z,4.50
2018-01-12T12:53:30.465Z,4.50
2018-01-12T12:55:57.921Z,4.50
2018-01-12T12:58:25.349Z,4.50
2018-01-12T13:00:52.772Z,4.50
2018-01-12T13:03:20.296Z,4.40
2018-01-12T13:05:48.058Z,4.50
2018-01-12T13:08:15.484Z,4.50
2018-01-12T13:10:42.909Z,4.60
2018-01-12T13:13:10.341Z,4.60
2018-01-12T13:15:37.785Z,5.20
2018-01-12T13:18:05.323Z,7.60
2018-01-12T13:20:32.813Z,8.60
2018-01-12T13:23:00.283Z,7.90
2018-01-12T13:25:27.722Z,6.90
2018-01-12T13:27:55.185Z,6.30
2018-01-12T13:30:22.634Z,5.70
2018-01-12T13:32:50.066Z,5.40
2018-01-12T13:35:17.592Z,5.20
2018-01-12T13:37:44.991Z,5.10
2018-01-12T13:40:12.434Z,5.00
2018-01-12T13:42:39.917Z,5.00
2018-01-12T13:45:07.309Z,4.80
2018-01-12T13:47:34.740Z,4.80
2018-01-12T13:50:02.210Z,4.80
2018-01-12T13:52:29.645Z,4.70
2018-01-12T13:54:57.233Z,4.80
2018-01-12T13:57:24.988Z,4.80
2018-01-12T13:59:52.631Z,4.80
2018-01-12T14:02:20.208Z,4.70
2018-01-12T14:04:47.699Z,4.70
2018-01-12T14:07:15.620Z,4.60
2018-01-12T14:09:43.203Z,4.70
2018-01-12T14:12:10.839Z,4.70
2018-01-12T14:14:38.322Z,4.80
2018-01-12T14:17:05.832Z,4.80
2018-01-12T14:19:33.271Z,4.80
2018-01-12T14:22:00.716Z,4.80
2018-01-12T14:24:28.156Z,4.80
2018-01-12T14:26:55.589Z,4.90
2018-01-12T14:29:23.040Z,4.90
2018-01-12T14:31:51.251Z,4.90
2018-01-12T14:34:18.878Z,4.90
2018-01-12T14:36:46.342Z,4.90
2018-01-12T14:39:13.757Z,4.80
2018-01-12T14:41:42.017Z,4.90
2018-01-12T14:44:09.623Z,4.80
2018-01-12T14:46:37.218Z,4.80
2018-01-12T14:49:04.697Z,4.90
2018-01-12T14:51:32.380Z,4.90
2018-01-12T14:54:00.606Z,4.90
2018-01-12T14:56:28.194Z,4.80
2018-01-12T14:58:55.636Z,4.80
2018-01-12T15:01:23.231Z,4.80
2018-01-12T15:03:50.822Z,4.80
2018-01-12T15:06:18.292Z,4.70
2018-01-12T15:08:45.722Z,4.60
2018-01-12T15:11:13.945Z,4.50
2018-01-12T15:13:41.410Z,4.50
2018-01-12T15:16:09.036Z,4.50
2018-01-12T15:18:36.527Z,4.50
2018-01-12T15:21:04.001Z,4.50
2018-01-12T15:23:31.536Z,4.40
2018-01-12T15:25:58.965Z,4.50
2018-01-12T15:28:26.401Z,4.60
2018-01-12T15:30:53.909Z,4.60
2018-01-12T15:33:21.342Z,4.70
2018-01-12T15:35:48.773Z,4.70
2018-01-12T15:38:16.202Z,4.70
2018-01-12T15:40:43.933Z,4.60
2018-01-12T15:43:11.518Z,4.70
2018-01-12T15:45:38.945Z,4.60
2018-01-12T15:48:06.373Z,4.80
2018-01-12T15:50:33.800Z,4.60
2018-01-12T15:53:01.294Z,4.60
2018-01-12T15:55:28.936Z,4.50
2018-01-12T15:57:56.377Z,4.60
2018-01-12T16:00:23.808Z,4.60
2018-01-12T16:02:51.409Z,4.60
2018-01-12T16:05:18.937Z,4.50
2018-01-12T16:07:47.145Z,4.60
2018-01-12T16:10:14.768Z,4.60
2018-01-12T16:12:42.233Z,4.50
2018-01-12T16:15:09.998Z,4.60
2018-01-12T16:17:37.757Z,4.50
2018-01-12T16:20:05.411Z,4.50
2018-01-12T16:22:33.178Z,4.50
2018-01-12T16:25:00.758Z,4.60
2018-01-12T16:27:28.189Z,4.50
2018-01-12T16:29:55.674Z,4.50
2018-01-12T16:32:23.297Z,4.50
2018-01-12T16:34:51.496Z,4.50
2018-01-12T16:37:19.267Z,4.60
2018-01-12T16:39:46.725Z,4.50
2018-01-12T16:42:14.170Z,4.50
2018-01-12T16:44:41.597Z,4.50
2018-01-12T16:47:09.025Z,4.50
2018-01-12T16:49:36.449Z,4.50
2018-01-12T16:52:03.898Z,4.50
2018-01-12T16:54:31.356Z,4.50
2018-01-12T16:56:58.808Z,4.50
2018-01-12T16:59:26.294Z,4.40
2018-01-12T17:01:53.721Z,4.50
2018-01-12T17:04:21.174Z,4.50
2018-01-12T17:06:48.621Z,4.50
2018-01-12T17:09:16.054Z,4.50
2018-01-12T17:11:43.681Z,4.40
2018-01-12T17:14:11.111Z,4.40
2018-01-12T17:16:38.608Z,4.40
2018-01-12T17:19:06.073Z,4.40
2018-01-12T17:21:33.704Z,4.50
2018-01-12T17:24:01.280Z,4.50
2018-01-12T17:26:28.713Z,4.50
2018-01-12T17:28:56.214Z,4.40
2018-01-12T17:31:23.973Z,4.40
2018-01-12T17:33:51.644Z,4.40
2018-01-12T17:36:19.199Z,4.40
2018-01-12T17:38:46.765Z,4.40
2018-01-12T17:41:14.222Z,4.40
2018-01-12T17:43:41.703Z,4.40
2018-01-12T17:46:09.960Z,4.30
2018-01-12T17:48:37.391Z,4.40
2018-01-12T17:51:05.021Z,4.40
2018-01-12T17:53:32.526Z,4.40
2018-01-12T17:56:00.077Z,4.50
2018-01-12T17:58:27.734Z,4.20
2018-01-12T18:00:55.306Z,4.40
2018-01-12T18:03:22.774Z,4.30
2018-01-12T18:05:50.741Z,4.40
2018-01-12T18:08:18.285Z,4.40
2018-01-12T18:10:45.765Z,4.50
2018-01-12T18:13:13.391Z,4.40
2018-01-12T18:15:40.902Z,4.40
2018-01-12T18:18:08.433Z,4.50
2018-01-12T18:20:35.885Z,4.50
2018-01-12T18:23:03.330Z,4.40
2018-01-12T18:25:30.762Z,4.40
2018-01-12T18:27:58.201Z,4.40
2018-01-12T18:30:25.621Z,4.40
2018-01-12T18:32:53.174Z,4.40
2018-01-12T18:35:20.611Z,4.40
2018-01-12T18:37:48.082Z,4.40
2018-01-12T18:40:15.526Z,4.40
2018-01-12T18:42:42.999Z,4.40
2018-01-12T18:45:10.453Z,4.40
2018-01-12T18:47:37.899Z,4.40
2018-01-12T18:50:05.346Z,4.50
2018-01-12T18:52:32.854Z,4.50
2018-01-12T18:55:00.597Z,4.50
2018-01-12T18:57:28.022Z,4.40
2018-01-12T18:59:55.478Z,4.50
2018-01-12T19:02:22.921Z,4.50
2018-01-12T19:04:50.429Z,4.50
2018-01-12T19:07:18.084Z,4.50
2018-01-12T19:09:45.964Z,4.50
2018-01-12T19:12:13.434Z,4.40
2018-01-12T19:14:41.062Z,4.50
2018-01-12T19:17:08.499Z,4.50
2018-01-12T19:19:35.940Z,4.40
2018-01-12T19:22:03.437Z,4.50
2018-01-12T19:24:31.033Z,4.50
2018-01-12T19:26:58.652Z,4.40
2018-01-12T19:29:26.087Z,4.50
2018-01-12T19:31:53.505Z,4.40
2018-01-12T19:34:21.073Z,4.40
2018-01-12T19:36:48.495Z,4.40
2018-01-12T19:39:16.073Z,4.50
2018-01-12T19:41:43.509Z,4.50
2018-01-12T19:44:10.970Z,4.50
2018-01-12T19:46:38.403Z,4.50
2018-01-12T19:49:05.902Z,4.60
2018-01-12T19:51:33.399Z,4.60
2018-01-12T19:54:01.131Z,4.60
2018-01-12T19:56:28.573Z,4.60
2018-01-12T19:58:56.006Z,4.60
2018-01-12T20:01:23.461Z,4.60
2018-01-12T20:03:50.886Z,4.60
2018-01-12T20:06:18.342Z,4.60
2018-01-12T20:08:45.773Z,4.60
2018-01-12T20:11:13.331Z,4.60
2018-01-12T20:13:40.791Z,4.90
2018-01-12T20:16:08.451Z,4.60
2018-01-12T20:18:36.022Z,4.60
2018-01-12T20:21:03.664Z,4.60
2018-01-12T20:23:31.237Z,4.70
2018-01-12T20:25:58.678Z,4.60
2018-01-12T20:28:26.148Z,4.70
2018-01-12T20:30:53.609Z,4.70
2018-01-12T20:33:21.272Z,4.70
2018-01-12T20:35:48.702Z,4.70
2018-01-12T20:38:16.280Z,4.80
2018-01-12T20:40:43.923Z,4.60
2018-01-12T20:43:11.434Z,4.70
2018-01-12T20:45:38.970Z,4.60
2018-01-12T20:48:06.396Z,4.70
2018-01-12T20:50:33.823Z,4.70
2018-01-12T20:53:01.259Z,4.70
2018-01-12T20:55:28.704Z,4.70
2018-01-12T20:57:56.562Z,4.80
2018-01-12T21:00:23.993Z,4.70
2018-01-12T21:02:51.477Z,4.70
2018-01-12T21:05:18.937Z,4.70
2018-01-12T21:07:46.365Z,4.60
2018-01-12T21:10:13.861Z,4.70
2018-01-12T21:12:41.283Z,4.70
2018-01-12T21:15:08.776Z,4.60
2018-01-12T21:17:36.206Z,4.60
2018-01-12T21:20:03.690Z,4.60
2018-01-12T21:22:31.322Z,4.50
2018-01-12T21:24:58.905Z,4.60
2018-01-12T21:27:26.673Z,4.70
2018-01-12T21:29:54.310Z,4.70
2018-01-12T21:32:21.813Z,4.70
2018-01-12T21:34:49.253Z,4.70
2018-01-12T21:37:16.696Z,4.80
2018-01-12T21:39:44.300Z,4.80
2018-01-12T21:42:12.018Z,4.80
2018-01-12T21:44:39.502Z,4.70
2018-01-12T21:47:07.258Z,4.80
2018-01-12T21:49:34.915Z,4.80
2018-01-12T21:52:03.511Z,4.80
2018-01-12T21:54:31.029Z,4.80
2018-01-12T21:56:58.461Z,4.80
2018-01-12T21:59:25.997Z,4.80
2018-01-12T22:01:53.429Z,4.80
2018-01-12T22:04:20.882Z,5.00
2018-01-12T22:06:48.468Z,4.80
2018-01-12T22:09:15.929Z,4.90
2018-01-12T22:11:43.598Z,4.90
2018-01-12T22:14:11.120Z,4.80
2018-01-12T22:16:38.538Z,4.90
2018-01-12T22:19:05.970Z,4.80
2018-01-12T22:21:33.515Z,4.80
2018-01-12T22:24:01.282Z,4.90
2018-01-12T22:26:28.720Z,4.80
2018-01-12T22:28:56.176Z,4.70
2018-01-12T22:31:23.658Z,4.70
2018-01-12T22:33:51.422Z,4.70
2018-01-12T22:36:19.476Z,4.70
2018-01-12T22:38:46.905Z,4.70
2018-01-12T22:41:14.432Z,4.70
2018-01-12T22:43:42.053Z,4.70
2018-01-12T22:46:09.463Z,4.70
2018-01-12T22:48:36.899Z,4.70
2018-01-12T22:51:04.433Z,4.70
2018-01-12T22:53:31.914Z,4.70
2018-01-12T22:55:59.358Z,4.80
2018-01-12T22:58:26.797Z,4.90
2018-01-12T23:00:54.255Z,4.70
2018-01-12T23:03:21.838Z,4.70
2018-01-12T23:05:49.331Z,4.70
2018-01-12T23:08:16.968Z,4.70
2018-01-12T23:10:44.491Z,4.70
2018-01-12T23:13:11.911Z,4.70
2018-01-12T23:15:39.334Z,4.80
2018-01-12T23:18:07.076Z,4.70
2018-01-12T23:20:34.591Z,4.80
2018-01-12T23:23:02.110Z,4.70
2018-01-12T23:25:29.547Z,4.70
2018-01-12T23:27:57.012Z,4.80
2018-01-12T23:30:24.444Z,4.80
2018-01-12T23:32:51.905Z,4.80
2018-01-12T23:35:19.336Z,4.80
2018-01-12T23:37:47.692Z,4.80
2018-01-12T23:40:15.125Z,4.70
2018-01-12T23:42:42.609Z,4.80
2018-01-12T23:45:10.065Z,4.70
2018-01-12T23:47:37.496Z,4.70
2018-01-12T23:50:05.034Z,4.70
2018-01-12T23:52:32.524Z,4.60
2018-01-12T23:54:59.986Z,4.60
2018-01-12T23:57:27.419Z,4.60
2018-01-12T23:59:55.178Z,4.60
